sensor_id;sensor_type;location;lat;lon;timestamp;P1;durP1;ratioP1;P2;durP2;ratioP2
16304;SDS011;8261;47.678;-122.174;2023-03-23T00:00:08;4.93;;;2.37;;
16304;SDS011;8261;47.678;-122.174;2023-03-23T00:02:40;3.13;;;2.13;;
16304;SDS011;8261;47.678;-122.174;2023-03-23T00:05:11;3.43;;;2.00;;
16304;SDS011;8261;47.678;-122.174;2023-03-23T00:07:40;4.57;;;2.07;;
16304;SDS011;8261;47.678;-122.174;2023-03-23T00:10:11;2.87;;;2.00;;
16304;SDS011;8261;47.678;-122.174;2023-03-23T00:12:40;4.37;;;2.20;;
16304;SDS011;8261;47.678;-122.174;2023-03-23T00:15:10;3.47;;;2.30;;
16304;SDS011;8261;47.678;-122.174;2023-03-23T00:17:45;3.03;;;2.30;;
16304;SDS011;8261;47.678;-122.174;2023-03-23T00:20:15;6.13;;;2.20;;
16304;SDS011;8261;47.678;-122.174;2023-03-23T00:22:45;3.87;;;2.10;;
16304;SDS011;8261;47.678;-122.174;2023-03-23T00:25:15;4.90;;;2.00;;
16304;SDS011;8261;47.678;-122.174;2023-03-23T00:27:45;5.17;;;2.03;;
16304;SDS011;8261;47.678;-122.174;2023-03-23T00:30:15;6.50;;;2.13;;
16304;SDS011;8261;47.678;-122.174;2023-03-23T00:32:46;4.03;;;2.00;;
16304;SDS011;8261;47.678;-122.174;2023-03-23T00:35:17;6.47;;;2.03;;
16304;SDS011;8261;47.678;-122.174;2023-03-23T00:37:47;3.30;;;2.30;;
16304;SDS011;8261;47.678;-122.174;2023-03-23T00:40:17;4.93;;;1.93;;
16304;SDS011;8261;47.678;-122.174;2023-03-23T00:42:46;4.40;;;1.70;;
16304;SDS011;8261;47.678;-122.174;2023-03-23T00:45:16;2.83;;;1.90;;
16304;SDS011;8261;47.678;-122.174;2023-03-23T00:47:49;5.13;;;2.27;;
16304;SDS011;8261;47.678;-122.174;2023-03-23T00:50:18;5.10;;;2.17;;
16304;SDS011;8261;47.678;-122.174;2023-03-23T00:52:48;4.57;;;1.90;;
16304;SDS011;8261;47.678;-122.174;2023-03-23T00:55:18;4.53;;;1.93;;
16304;SDS011;8261;47.678;-122.174;2023-03-23T00:57:48;5.70;;;2.10;;
16304;SDS011;8261;47.678;-122.174;2023-03-23T01:00:18;2.83;;;1.90;;
16304;SDS011;8261;47.678;-122.174;2023-03-23T01:02:50;4.30;;;1.90;;
16304;SDS011;8261;47.678;-122.174;2023-03-23T01:05:20;4.87;;;2.10;;
16304;SDS011;8261;47.678;-122.174;2023-03-23T01:07:49;4.20;;;1.80;;
16304;SDS011;8261;47.678;-122.174;2023-03-23T01:10:19;3.03;;;2.00;;
16304;SDS011;8261;47.678;-122.174;2023-03-23T01:12:48;5.43;;;2.07;;
16304;SDS011;8261;47.678;-122.174;2023-03-23T01:15:19;2.63;;;1.90;;
16304;SDS011;8261;47.678;-122.174;2023-03-23T01:17:50;3.90;;;2.10;;
16304;SDS011;8261;47.678;-122.174;2023-03-23T01:20:20;4.27;;;1.90;;
16304;SDS011;8261;47.678;-122.174;2023-03-23T01:22:49;3.73;;;1.87;;
16304;SDS011;8261;47.678;-122.174;2023-03-23T01:25:19;3.23;;;1.83;;
16304;SDS011;8261;47.678;-122.174;2023-03-23T01:27:48;4.77;;;2.10;;
16304;SDS011;8261;47.678;-122.174;2023-03-23T01:30:17;3.30;;;1.70;;
16304;SDS011;8261;47.678;-122.174;2023-03-23T01:32:47;5.43;;;2.17;;
16304;SDS011;8261;47.678;-122.174;2023-03-23T01:35:19;3.03;;;1.70;;
16304;SDS011;8261;47.678;-122.174;2023-03-23T01:37:49;5.57;;;2.20;;
16304;SDS011;8261;47.678;-122.174;2023-03-23T01:40:18;5.33;;;2.30;;
16304;SDS011;8261;47.678;-122.174;2023-03-23T01:42:48;5.87;;;2.20;;
16304;SDS011;8261;47.678;-122.174;2023-03-23T01:45:23;4.80;;;2.00;;
16304;SDS011;8261;47.678;-122.174;2023-03-23T01:48:02;5.40;;;2.23;;
16304;SDS011;8261;47.678;-122.174;2023-03-23T01:50:39;2.83;;;2.20;;
16304;SDS011;8261;47.678;-122.174;2023-03-23T01:53:17;3.17;;;1.90;;
16304;SDS011;8261;47.678;-122.174;2023-03-23T01:55:49;4.77;;;2.00;;
16304;SDS011;8261;47.678;-122.174;2023-03-23T01:58:23;6.00;;;2.50;;
16304;SDS011;8261;47.678;-122.174;2023-03-23T02:00:55;4.30;;;2.13;;
16304;SDS011;8261;47.678;-122.174;2023-03-23T02:03:31;4.10;;;2.30;;
16304;SDS011;8261;47.678;-122.174;2023-03-23T02:06:01;4.37;;;2.30;;
16304;SDS011;8261;47.678;-122.174;2023-03-23T02:08:31;3.57;;;2.03;;
16304;SDS011;8261;47.678;-122.174;2023-03-23T02:11:08;2.77;;;2.00;;
16304;SDS011;8261;47.678;-122.174;2023-03-23T02:13:42;2.20;;;1.90;;
16304;SDS011;8261;47.678;-122.174;2023-03-23T02:16:13;6.80;;;2.23;;
16304;SDS011;8261;47.678;-122.174;2023-03-23T02:18:53;7.23;;;2.70;;
16304;SDS011;8261;47.678;-122.174;2023-03-23T02:21:41;11.27;;;3.03;;
16304;SDS011;8261;47.678;-122.174;2023-03-23T02:24:36;28.70;;;3.93;;
16304;SDS011;8261;47.678;-122.174;2023-03-23T02:27:20;21.43;;;3.80;;
16304;SDS011;8261;47.678;-122.174;2023-03-23T02:30:14;12.53;;;2.97;;
16304;SDS011;8261;47.678;-122.174;2023-03-23T02:36:04;5.90;;;2.20;;
16304;SDS011;8261;47.678;-122.174;2023-03-23T02:38:41;9.10;;;2.40;;
16304;SDS011;8261;47.678;-122.174;2023-03-23T02:41:18;5.53;;;2.40;;
16304;SDS011;8261;47.678;-122.174;2023-03-23T02:43:50;5.37;;;2.33;;
16304;SDS011;8261;47.678;-122.174;2023-03-23T02:46:21;5.40;;;2.40;;
16304;SDS011;8261;47.678;-122.174;2023-03-23T02:48:54;4.47;;;2.47;;
16304;SDS011;8261;47.678;-122.174;2023-03-23T02:51:26;3.40;;;2.00;;
16304;SDS011;8261;47.678;-122.174;2023-03-23T02:53:57;6.70;;;2.70;;
16304;SDS011;8261;47.678;-122.174;2023-03-23T02:56:27;6.13;;;3.03;;
16304;SDS011;8261;47.678;-122.174;2023-03-23T02:58:58;6.30;;;2.73;;
16304;SDS011;8261;47.678;-122.174;2023-03-23T03:04:23;3.80;;;2.90;;
16304;SDS011;8261;47.678;-122.174;2023-03-23T03:07:01;5.13;;;2.87;;
16304;SDS011;8261;47.678;-122.174;2023-03-23T03:09:52;4.47;;;2.80;;
16304;SDS011;8261;47.678;-122.174;2023-03-23T03:12:29;4.37;;;2.87;;
16304;SDS011;8261;47.678;-122.174;2023-03-23T03:15:08;6.80;;;2.77;;
16304;SDS011;8261;47.678;-122.174;2023-03-23T03:17:46;4.37;;;2.93;;
16304;SDS011;8261;47.678;-122.174;2023-03-23T03:20:24;5.57;;;2.77;;
16304;SDS011;8261;47.678;-122.174;2023-03-23T03:22:55;3.83;;;2.97;;
16304;SDS011;8261;47.678;-122.174;2023-03-23T03:25:25;4.40;;;2.93;;
16304;SDS011;8261;47.678;-122.174;2023-03-23T03:27:57;4.33;;;2.87;;
16304;SDS011;8261;47.678;-122.174;2023-03-23T03:30:28;5.43;;;3.00;;
16304;SDS011;8261;47.678;-122.174;2023-03-23T03:33:02;4.57;;;3.27;;
16304;SDS011;8261;47.678;-122.174;2023-03-23T03:35:35;5.33;;;3.30;;
16304;SDS011;8261;47.678;-122.174;2023-03-23T03:38:07;10.03;;;2.90;;
16304;SDS011;8261;47.678;-122.174;2023-03-23T03:40:37;6.87;;;3.30;;
16304;SDS011;8261;47.678;-122.174;2023-03-23T03:43:07;3.30;;;2.97;;
16304;SDS011;8261;47.678;-122.174;2023-03-23T03:45:37;7.00;;;2.80;;
16304;SDS011;8261;47.678;-122.174;2023-03-23T03:48:08;4.53;;;2.90;;
16304;SDS011;8261;47.678;-122.174;2023-03-23T03:50:40;5.80;;;3.37;;
16304;SDS011;8261;47.678;-122.174;2023-03-23T03:53:10;4.43;;;3.37;;
16304;SDS011;8261;47.678;-122.174;2023-03-23T03:55:39;5.33;;;3.30;;
16304;SDS011;8261;47.678;-122.174;2023-03-23T03:58:11;5.73;;;3.27;;
16304;SDS011;8261;47.678;-122.174;2023-03-23T04:00:40;4.57;;;3.23;;
16304;SDS011;8261;47.678;-122.174;2023-03-23T04:03:13;5.60;;;3.57;;
16304;SDS011;8261;47.678;-122.174;2023-03-23T04:05:45;5.80;;;2.90;;
16304;SDS011;8261;47.678;-122.174;2023-03-23T04:08:14;4.10;;;2.83;;
16304;SDS011;8261;47.678;-122.174;2023-03-23T04:10:44;3.83;;;3.10;;
16304;SDS011;8261;47.678;-122.174;2023-03-23T04:13:15;7.17;;;3.23;;
16304;SDS011;8261;47.678;-122.174;2023-03-23T04:15:45;3.57;;;2.67;;
16304;SDS011;8261;47.678;-122.174;2023-03-23T04:18:15;4.60;;;3.03;;
16304;SDS011;8261;47.678;-122.174;2023-03-23T04:20:47;7.03;;;3.20;;
16304;SDS011;8261;47.678;-122.174;2023-03-23T04:23:17;4.83;;;3.30;;
16304;SDS011;8261;47.678;-122.174;2023-03-23T04:25:48;5.03;;;3.20;;
16304;SDS011;8261;47.678;-122.174;2023-03-23T04:28:23;4.33;;;3.20;;
16304;SDS011;8261;47.678;-122.174;2023-03-23T04:30:54;5.40;;;3.03;;
16304;SDS011;8261;47.678;-122.174;2023-03-23T04:33:23;4.53;;;3.23;;
16304;SDS011;8261;47.678;-122.174;2023-03-23T04:35:57;5.50;;;2.97;;
16304;SDS011;8261;47.678;-122.174;2023-03-23T04:38:28;4.37;;;2.80;;
16304;SDS011;8261;47.678;-122.174;2023-03-23T04:40:58;4.53;;;2.50;;
16304;SDS011;8261;47.678;-122.174;2023-03-23T04:43:28;5.20;;;2.90;;
16304;SDS011;8261;47.678;-122.174;2023-03-23T04:45:59;6.30;;;3.10;;
16304;SDS011;8261;47.678;-122.174;2023-03-23T04:48:29;6.20;;;2.73;;
16304;SDS011;8261;47.678;-122.174;2023-03-23T04:51:02;4.30;;;3.13;;
16304;SDS011;8261;47.678;-122.174;2023-03-23T04:53:33;4.40;;;2.70;;
16304;SDS011;8261;47.678;-122.174;2023-03-23T04:56:02;6.57;;;2.93;;
16304;SDS011;8261;47.678;-122.174;2023-03-23T04:58:31;5.23;;;2.90;;
16304;SDS011;8261;47.678;-122.174;2023-03-23T05:01:01;4.47;;;2.87;;
16304;SDS011;8261;47.678;-122.174;2023-03-23T05:03:31;6.10;;;3.00;;
16304;SDS011;8261;47.678;-122.174;2023-03-23T05:06:04;4.67;;;2.73;;
16304;SDS011;8261;47.678;-122.174;2023-03-23T05:08:35;5.50;;;2.80;;
16304;SDS011;8261;47.678;-122.174;2023-03-23T05:11:05;5.10;;;3.10;;
16304;SDS011;8261;47.678;-122.174;2023-03-23T05:13:35;3.87;;;3.07;;
16304;SDS011;8261;47.678;-122.174;2023-03-23T05:16:05;4.63;;;3.37;;
16304;SDS011;8261;47.678;-122.174;2023-03-23T05:18:35;4.60;;;3.50;;
16304;SDS011;8261;47.678;-122.174;2023-03-23T05:21:07;5.73;;;3.30;;
16304;SDS011;8261;47.678;-122.174;2023-03-23T05:23:36;6.80;;;3.27;;
16304;SDS011;8261;47.678;-122.174;2023-03-23T05:26:06;6.80;;;3.00;;
16304;SDS011;8261;47.678;-122.174;2023-03-23T05:28:36;7.07;;;3.13;;
16304;SDS011;8261;47.678;-122.174;2023-03-23T05:31:07;4.40;;;3.20;;
16304;SDS011;8261;47.678;-122.174;2023-03-23T05:33:37;4.77;;;2.87;;
16304;SDS011;8261;47.678;-122.174;2023-03-23T05:36:09;3.40;;;3.10;;
16304;SDS011;8261;47.678;-122.174;2023-03-23T05:38:39;5.20;;;2.93;;
16304;SDS011;8261;47.678;-122.174;2023-03-23T05:41:11;5.27;;;3.27;;
16304;SDS011;8261;47.678;-122.174;2023-03-23T05:43:41;7.17;;;3.10;;
16304;SDS011;8261;47.678;-122.174;2023-03-23T05:46:10;3.73;;;2.90;;
16304;SDS011;8261;47.678;-122.174;2023-03-23T05:48:40;5.40;;;2.57;;
16304;SDS011;8261;47.678;-122.174;2023-03-23T05:51:11;3.97;;;2.20;;
16304;SDS011;8261;47.678;-122.174;2023-03-23T05:53:41;6.70;;;2.40;;
16304;SDS011;8261;47.678;-122.174;2023-03-23T05:56:10;6.50;;;2.70;;
16304;SDS011;8261;47.678;-122.174;2023-03-23T05:58:40;5.23;;;2.40;;
16304;SDS011;8261;47.678;-122.174;2023-03-23T06:01:09;2.93;;;2.53;;
16304;SDS011;8261;47.678;-122.174;2023-03-23T06:03:40;3.47;;;2.40;;
16304;SDS011;8261;47.678;-122.174;2023-03-23T06:06:11;5.77;;;2.47;;
16304;SDS011;8261;47.678;-122.174;2023-03-23T06:08:41;4.87;;;2.30;;
16304;SDS011;8261;47.678;-122.174;2023-03-23T06:11:11;4.63;;;2.20;;
16304;SDS011;8261;47.678;-122.174;2023-03-23T06:13:41;4.30;;;2.40;;
16304;SDS011;8261;47.678;-122.174;2023-03-23T06:16:10;4.37;;;2.20;;
16304;SDS011;8261;47.678;-122.174;2023-03-23T06:18:40;6.53;;;2.43;;
16304;SDS011;8261;47.678;-122.174;2023-03-23T06:21:12;4.40;;;2.47;;
16304;SDS011;8261;47.678;-122.174;2023-03-23T06:23:44;3.83;;;1.90;;
16304;SDS011;8261;47.678;-122.174;2023-03-23T06:26:14;7.50;;;2.37;;
16304;SDS011;8261;47.678;-122.174;2023-03-23T06:28:46;4.47;;;1.90;;
16304;SDS011;8261;47.678;-122.174;2023-03-23T06:31:16;3.60;;;2.00;;
16304;SDS011;8261;47.678;-122.174;2023-03-23T06:33:50;6.60;;;2.67;;
16304;SDS011;8261;47.678;-122.174;2023-03-23T06:36:23;4.80;;;2.27;;
16304;SDS011;8261;47.678;-122.174;2023-03-23T06:38:54;4.97;;;2.27;;
16304;SDS011;8261;47.678;-122.174;2023-03-23T06:41:24;6.20;;;2.43;;
16304;SDS011;8261;47.678;-122.174;2023-03-23T06:43:54;7.03;;;2.40;;
16304;SDS011;8261;47.678;-122.174;2023-03-23T06:46:23;3.93;;;2.20;;
16304;SDS011;8261;47.678;-122.174;2023-03-23T06:48:53;3.53;;;2.00;;
16304;SDS011;8261;47.678;-122.174;2023-03-23T06:51:25;6.07;;;2.33;;
16304;SDS011;8261;47.678;-122.174;2023-03-23T06:53:54;9.30;;;2.10;;
16304;SDS011;8261;47.678;-122.174;2023-03-23T06:56:24;7.17;;;2.63;;
16304;SDS011;8261;47.678;-122.174;2023-03-23T06:58:53;4.67;;;2.20;;
16304;SDS011;8261;47.678;-122.174;2023-03-23T07:01:23;4.60;;;1.77;;
16304;SDS011;8261;47.678;-122.174;2023-03-23T07:03:54;7.27;;;2.33;;
16304;SDS011;8261;47.678;-122.174;2023-03-23T07:06:25;6.23;;;2.47;;
16304;SDS011;8261;47.678;-122.174;2023-03-23T07:08:55;10.43;;;2.27;;
16304;SDS011;8261;47.678;-122.174;2023-03-23T07:11:25;8.00;;;2.17;;
16304;SDS011;8261;47.678;-122.174;2023-03-23T07:13:55;7.33;;;2.57;;
16304;SDS011;8261;47.678;-122.174;2023-03-23T07:16:24;7.23;;;2.67;;
16304;SDS011;8261;47.678;-122.174;2023-03-23T07:18:54;5.37;;;2.20;;
16304;SDS011;8261;47.678;-122.174;2023-03-23T07:21:27;3.30;;;2.07;;
16304;SDS011;8261;47.678;-122.174;2023-03-23T07:23:57;6.63;;;2.40;;
16304;SDS011;8261;47.678;-122.174;2023-03-23T07:26:27;6.47;;;2.20;;
16304;SDS011;8261;47.678;-122.174;2023-03-23T07:28:56;5.27;;;2.60;;
16304;SDS011;8261;47.678;-122.174;2023-03-23T07:31:26;5.20;;;2.30;;
16304;SDS011;8261;47.678;-122.174;2023-03-23T07:33:56;4.30;;;2.10;;
16304;SDS011;8261;47.678;-122.174;2023-03-23T07:36:28;4.20;;;2.07;;
16304;SDS011;8261;47.678;-122.174;2023-03-23T07:38:58;4.97;;;2.03;;
16304;SDS011;8261;47.678;-122.174;2023-03-23T07:41:28;4.47;;;1.80;;
16304;SDS011;8261;47.678;-122.174;2023-03-23T07:43:58;7.23;;;1.83;;
16304;SDS011;8261;47.678;-122.174;2023-03-23T07:46:28;6.23;;;2.23;;
16304;SDS011;8261;47.678;-122.174;2023-03-23T07:48:58;4.03;;;1.83;;
16304;SDS011;8261;47.678;-122.174;2023-03-23T07:51:33;3.57;;;2.03;;
16304;SDS011;8261;47.678;-122.174;2023-03-23T07:54:04;3.83;;;1.83;;
16304;SDS011;8261;47.678;-122.174;2023-03-23T07:56:35;8.17;;;2.07;;
16304;SDS011;8261;47.678;-122.174;2023-03-23T07:59:07;3.93;;;1.80;;
16304;SDS011;8261;47.678;-122.174;2023-03-23T08:01:37;4.57;;;1.93;;
16304;SDS011;8261;47.678;-122.174;2023-03-23T08:04:07;3.50;;;2.00;;
16304;SDS011;8261;47.678;-122.174;2023-03-23T08:06:39;5.47;;;2.00;;
16304;SDS011;8261;47.678;-122.174;2023-03-23T08:09:08;3.50;;;1.33;;
16304;SDS011;8261;47.678;-122.174;2023-03-23T08:11:39;3.77;;;1.50;;
16304;SDS011;8261;47.678;-122.174;2023-03-23T08:14:08;4.50;;;1.77;;
16304;SDS011;8261;47.678;-122.174;2023-03-23T08:16:38;5.73;;;1.77;;
16304;SDS011;8261;47.678;-122.174;2023-03-23T08:19:08;3.07;;;1.57;;
16304;SDS011;8261;47.678;-122.174;2023-03-23T08:21:40;5.03;;;1.83;;
16304;SDS011;8261;47.678;-122.174;2023-03-23T08:24:10;2.47;;;1.37;;
16304;SDS011;8261;47.678;-122.174;2023-03-23T08:26:40;3.57;;;1.60;;
16304;SDS011;8261;47.678;-122.174;2023-03-23T08:29:09;7.70;;;1.63;;
16304;SDS011;8261;47.678;-122.174;2023-03-23T08:31:40;3.70;;;1.33;;
16304;SDS011;8261;47.678;-122.174;2023-03-23T08:34:10;5.03;;;1.70;;
16304;SDS011;8261;47.678;-122.174;2023-03-23T08:36:43;3.97;;;1.70;;
16304;SDS011;8261;47.678;-122.174;2023-03-23T08:39:13;7.63;;;1.63;;
16304;SDS011;8261;47.678;-122.174;2023-03-23T08:41:44;3.63;;;1.87;;
16304;SDS011;8261;47.678;-122.174;2023-03-23T08:44:13;5.33;;;1.80;;
16304;SDS011;8261;47.678;-122.174;2023-03-23T08:46:43;2.50;;;1.27;;
16304;SDS011;8261;47.678;-122.174;2023-03-23T08:49:13;3.40;;;1.53;;
16304;SDS011;8261;47.678;-122.174;2023-03-23T08:51:45;4.70;;;1.57;;
16304;SDS011;8261;47.678;-122.174;2023-03-23T08:54:14;2.57;;;1.50;;
16304;SDS011;8261;47.678;-122.174;2023-03-23T08:56:45;2.50;;;1.07;;
16304;SDS011;8261;47.678;-122.174;2023-03-23T08:59:14;3.37;;;1.50;;
16304;SDS011;8261;47.678;-122.174;2023-03-23T09:01:44;7.27;;;1.70;;
16304;SDS011;8261;47.678;-122.174;2023-03-23T09:04:13;4.87;;;1.40;;
16304;SDS011;8261;47.678;-122.174;2023-03-23T09:06:43;2.00;;;1.30;;
16304;SDS011;8261;47.678;-122.174;2023-03-23T09:09:15;5.63;;;1.53;;
16304;SDS011;8261;47.678;-122.174;2023-03-23T09:11:45;5.23;;;1.67;;
16304;SDS011;8261;47.678;-122.174;2023-03-23T09:14:15;5.17;;;1.73;;
16304;SDS011;8261;47.678;-122.174;2023-03-23T09:16:45;3.47;;;1.87;;
16304;SDS011;8261;47.678;-122.174;2023-03-23T09:19:14;3.67;;;1.60;;
16304;SDS011;8261;47.678;-122.174;2023-03-23T09:21:46;3.90;;;1.40;;
16304;SDS011;8261;47.678;-122.174;2023-03-23T09:24:17;4.70;;;2.00;;
16304;SDS011;8261;47.678;-122.174;2023-03-23T09:26:46;3.13;;;1.33;;
16304;SDS011;8261;47.678;-122.174;2023-03-23T09:29:16;5.87;;;1.63;;
16304;SDS011;8261;47.678;-122.174;2023-03-23T09:31:47;3.37;;;1.40;;
16304;SDS011;8261;47.678;-122.174;2023-03-23T09:34:16;11.87;;;1.80;;
16304;SDS011;8261;47.678;-122.174;2023-03-23T09:36:48;7.40;;;1.80;;
16304;SDS011;8261;47.678;-122.174;2023-03-23T09:39:18;4.73;;;1.57;;
16304;SDS011;8261;47.678;-122.174;2023-03-23T09:41:51;5.67;;;1.50;;
16304;SDS011;8261;47.678;-122.174;2023-03-23T09:44:31;4.67;;;1.50;;
16304;SDS011;8261;47.678;-122.174;2023-03-23T09:47:11;4.07;;;1.37;;
16304;SDS011;8261;47.678;-122.174;2023-03-23T09:49:50;1.83;;;1.30;;
16304;SDS011;8261;47.678;-122.174;2023-03-23T09:52:26;4.77;;;1.60;;
16304;SDS011;8261;47.678;-122.174;2023-03-23T09:55:11;9.43;;;1.57;;
16304;SDS011;8261;47.678;-122.174;2023-03-23T09:57:44;2.73;;;1.30;;
16304;SDS011;8261;47.678;-122.174;2023-03-23T10:00:22;2.93;;;1.00;;
16304;SDS011;8261;47.678;-122.174;2023-03-23T10:02:56;3.40;;;1.30;;
16304;SDS011;8261;47.678;-122.174;2023-03-23T10:05:31;3.73;;;1.80;;
16304;SDS011;8261;47.678;-122.174;2023-03-23T10:08:09;4.37;;;1.17;;
16304;SDS011;8261;47.678;-122.174;2023-03-23T10:10:45;3.27;;;1.30;;
16304;SDS011;8261;47.678;-122.174;2023-03-23T10:13:22;3.87;;;1.40;;
16304;SDS011;8261;47.678;-122.174;2023-03-23T10:16:01;4.37;;;1.60;;
16304;SDS011;8261;47.678;-122.174;2023-03-23T10:18:36;1.87;;;1.37;;
16304;SDS011;8261;47.678;-122.174;2023-03-23T10:21:11;1.63;;;1.27;;
16304;SDS011;8261;47.678;-122.174;2023-03-23T10:23:49;5.93;;;1.50;;
16304;SDS011;8261;47.678;-122.174;2023-03-23T10:26:26;5.70;;;1.70;;
16304;SDS011;8261;47.678;-122.174;2023-03-23T10:29:07;3.67;;;1.80;;
16304;SDS011;8261;47.678;-122.174;2023-03-23T10:31:43;4.10;;;1.20;;
16304;SDS011;8261;47.678;-122.174;2023-03-23T10:34:18;3.57;;;1.33;;
16304;SDS011;8261;47.678;-122.174;2023-03-23T10:37:02;3.00;;;1.30;;
16304;SDS011;8261;47.678;-122.174;2023-03-23T10:39:41;3.67;;;1.30;;
16304;SDS011;8261;47.678;-122.174;2023-03-23T10:42:23;4.30;;;1.50;;
16304;SDS011;8261;47.678;-122.174;2023-03-23T10:44:55;5.57;;;1.70;;
16304;SDS011;8261;47.678;-122.174;2023-03-23T10:47:29;4.77;;;1.67;;
16304;SDS011;8261;47.678;-122.174;2023-03-23T10:50:00;3.83;;;1.60;;
16304;SDS011;8261;47.678;-122.174;2023-03-23T10:52:33;2.93;;;1.40;;
16304;SDS011;8261;47.678;-122.174;2023-03-23T10:55:07;4.27;;;1.67;;
16304;SDS011;8261;47.678;-122.174;2023-03-23T10:57:40;3.40;;;1.30;;
16304;SDS011;8261;47.678;-122.174;2023-03-23T11:00:16;3.93;;;1.60;;
16304;SDS011;8261;47.678;-122.174;2023-03-23T11:02:57;6.87;;;1.47;;
16304;SDS011;8261;47.678;-122.174;2023-03-23T11:05:32;3.37;;;1.10;;
16304;SDS011;8261;47.678;-122.174;2023-03-23T11:08:10;3.07;;;1.43;;
16304;SDS011;8261;47.678;-122.174;2023-03-23T11:10:49;5.00;;;1.73;;
16304;SDS011;8261;47.678;-122.174;2023-03-23T11:13:21;3.63;;;1.70;;
16304;SDS011;8261;47.678;-122.174;2023-03-23T11:15:56;4.30;;;1.50;;
16304;SDS011;8261;47.678;-122.174;2023-03-23T11:18:27;2.60;;;0.93;;
16304;SDS011;8261;47.678;-122.174;2023-03-23T11:21:05;5.33;;;1.30;;
16304;SDS011;8261;47.678;-122.174;2023-03-23T11:23:38;4.27;;;1.33;;
16304;SDS011;8261;47.678;-122.174;2023-03-23T11:26:13;4.83;;;1.40;;
16304;SDS011;8261;47.678;-122.174;2023-03-23T11:28:45;7.77;;;1.40;;
16304;SDS011;8261;47.678;-122.174;2023-03-23T11:31:17;3.97;;;1.00;;
16304;SDS011;8261;47.678;-122.174;2023-03-23T11:33:52;4.33;;;1.20;;
16304;SDS011;8261;47.678;-122.174;2023-03-23T11:36:28;3.77;;;1.23;;
16304;SDS011;8261;47.678;-122.174;2023-03-23T11:39:00;6.87;;;1.70;;
16304;SDS011;8261;47.678;-122.174;2023-03-23T11:41:35;5.30;;;1.40;;
16304;SDS011;8261;47.678;-122.174;2023-03-23T11:44:10;3.53;;;1.00;;
16304;SDS011;8261;47.678;-122.174;2023-03-23T11:46:42;6.13;;;1.30;;
16304;SDS011;8261;47.678;-122.174;2023-03-23T11:49:22;5.17;;;1.37;;
16304;SDS011;8261;47.678;-122.174;2023-03-23T11:52:02;7.27;;;1.47;;
16304;SDS011;8261;47.678;-122.174;2023-03-23T11:54:41;4.43;;;1.30;;
16304;SDS011;8261;47.678;-122.174;2023-03-23T11:57:17;2.83;;;1.10;;
16304;SDS011;8261;47.678;-122.174;2023-03-23T11:59:47;2.93;;;1.10;;
16304;SDS011;8261;47.678;-122.174;2023-03-23T12:02:21;2.87;;;1.00;;
16304;SDS011;8261;47.678;-122.174;2023-03-23T12:05:25;6.37;;;1.20;;
16304;SDS011;8261;47.678;-122.174;2023-03-23T12:08:10;2.57;;;1.07;;
16304;SDS011;8261;47.678;-122.174;2023-03-23T12:10:50;3.87;;;1.30;;
16304;SDS011;8261;47.678;-122.174;2023-03-23T12:13:32;6.27;;;1.53;;
16304;SDS011;8261;47.678;-122.174;2023-03-23T12:16:20;6.33;;;1.43;;
16304;SDS011;8261;47.678;-122.174;2023-03-23T12:18:58;4.77;;;1.23;;
16304;SDS011;8261;47.678;-122.174;2023-03-23T12:21:38;5.17;;;1.60;;
16304;SDS011;8261;47.678;-122.174;2023-03-23T12:24:18;4.37;;;1.53;;
16304;SDS011;8261;47.678;-122.174;2023-03-23T12:27:00;5.90;;;1.67;;
16304;SDS011;8261;47.678;-122.174;2023-03-23T12:29:44;3.83;;;1.20;;
16304;SDS011;8261;47.678;-122.174;2023-03-23T12:32:23;3.93;;;1.30;;
16304;SDS011;8261;47.678;-122.174;2023-03-23T12:35:02;4.93;;;1.50;;
16304;SDS011;8261;47.678;-122.174;2023-03-23T12:37:46;3.83;;;1.20;;
16304;SDS011;8261;47.678;-122.174;2023-03-23T12:40:35;1.50;;;1.00;;
16304;SDS011;8261;47.678;-122.174;2023-03-23T12:43:20;6.67;;;1.33;;
16304;SDS011;8261;47.678;-122.174;2023-03-23T12:46:00;7.23;;;1.27;;
16304;SDS011;8261;47.678;-122.174;2023-03-23T12:48:39;10.30;;;1.50;;
16304;SDS011;8261;47.678;-122.174;2023-03-23T12:51:11;5.13;;;1.47;;
16304;SDS011;8261;47.678;-122.174;2023-03-23T12:53:48;4.93;;;1.30;;
16304;SDS011;8261;47.678;-122.174;2023-03-23T12:56:23;4.67;;;1.20;;
16304;SDS011;8261;47.678;-122.174;2023-03-23T12:58:58;4.33;;;1.00;;
16304;SDS011;8261;47.678;-122.174;2023-03-23T13:01:39;4.50;;;1.10;;
16304;SDS011;8261;47.678;-122.174;2023-03-23T13:04:13;6.07;;;1.30;;
16304;SDS011;8261;47.678;-122.174;2023-03-23T13:06:47;6.17;;;1.40;;
16304;SDS011;8261;47.678;-122.174;2023-03-23T13:09:19;4.83;;;1.37;;
16304;SDS011;8261;47.678;-122.174;2023-03-23T13:11:54;5.67;;;1.20;;
16304;SDS011;8261;47.678;-122.174;2023-03-23T13:14:27;2.47;;;1.10;;
16304;SDS011;8261;47.678;-122.174;2023-03-23T13:17:15;5.30;;;1.30;;
16304;SDS011;8261;47.678;-122.174;2023-03-23T13:19:57;3.57;;;1.20;;
16304;SDS011;8261;47.678;-122.174;2023-03-23T13:22:48;5.50;;;1.20;;
16304;SDS011;8261;47.678;-122.174;2023-03-23T13:25:27;3.17;;;1.27;;
16304;SDS011;8261;47.678;-122.174;2023-03-23T13:28:12;5.37;;;1.43;;
16304;SDS011;8261;47.678;-122.174;2023-03-23T13:30:53;7.10;;;1.60;;
16304;SDS011;8261;47.678;-122.174;2023-03-23T13:33:31;3.77;;;1.70;;
16304;SDS011;8261;47.678;-122.174;2023-03-23T13:36:08;5.00;;;1.97;;
16304;SDS011;8261;47.678;-122.174;2023-03-23T13:38:43;3.80;;;1.33;;
16304;SDS011;8261;47.678;-122.174;2023-03-23T13:41:16;3.33;;;1.03;;
16304;SDS011;8261;47.678;-122.174;2023-03-23T13:43:49;4.10;;;1.73;;
16304;SDS011;8261;47.678;-122.174;2023-03-23T13:46:27;4.07;;;1.20;;
16304;SDS011;8261;47.678;-122.174;2023-03-23T13:49:14;2.37;;;1.03;;
16304;SDS011;8261;47.678;-122.174;2023-03-23T13:51:51;3.00;;;1.00;;
16304;SDS011;8261;47.678;-122.174;2023-03-23T13:54:32;2.77;;;1.00;;
16304;SDS011;8261;47.678;-122.174;2023-03-23T13:57:32;2.03;;;0.90;;
16304;SDS011;8261;47.678;-122.174;2023-03-23T14:03:03;2.63;;;1.10;;
16304;SDS011;8261;47.678;-122.174;2023-03-23T14:05:43;4.13;;;1.20;;
16304;SDS011;8261;47.678;-122.174;2023-03-23T14:08:23;3.10;;;0.90;;
16304;SDS011;8261;47.678;-122.174;2023-03-23T14:11:10;4.20;;;1.40;;
16304;SDS011;8261;47.678;-122.174;2023-03-23T14:13:50;4.27;;;0.90;;
16304;SDS011;8261;47.678;-122.174;2023-03-23T14:16:38;2.83;;;1.20;;
16304;SDS011;8261;47.678;-122.174;2023-03-23T14:19:14;2.60;;;1.27;;
16304;SDS011;8261;47.678;-122.174;2023-03-23T14:21:52;3.53;;;1.40;;
16304;SDS011;8261;47.678;-122.174;2023-03-23T14:24:23;5.07;;;1.17;;
16304;SDS011;8261;47.678;-122.174;2023-03-23T14:27:01;2.03;;;0.77;;
16304;SDS011;8261;47.678;-122.174;2023-03-23T14:29:36;2.53;;;1.13;;
16304;SDS011;8261;47.678;-122.174;2023-03-23T14:32:06;4.27;;;1.00;;
16304;SDS011;8261;47.678;-122.174;2023-03-23T14:34:40;2.27;;;1.00;;
16304;SDS011;8261;47.678;-122.174;2023-03-23T14:37:13;2.93;;;1.20;;
16304;SDS011;8261;47.678;-122.174;2023-03-23T14:39:44;3.50;;;1.23;;
16304;SDS011;8261;47.678;-122.174;2023-03-23T14:42:16;1.13;;;0.90;;
16304;SDS011;8261;47.678;-122.174;2023-03-23T14:44:48;4.50;;;1.07;;
16304;SDS011;8261;47.678;-122.174;2023-03-23T14:47:20;2.47;;;0.90;;
16304;SDS011;8261;47.678;-122.174;2023-03-23T14:49:53;3.30;;;1.10;;
16304;SDS011;8261;47.678;-122.174;2023-03-23T14:52:27;2.37;;;1.00;;
16304;SDS011;8261;47.678;-122.174;2023-03-23T14:55:07;1.10;;;0.80;;
16304;SDS011;8261;47.678;-122.174;2023-03-23T14:57:41;2.47;;;1.00;;
16304;SDS011;8261;47.678;-122.174;2023-03-23T15:00:13;3.13;;;1.30;;
16304;SDS011;8261;47.678;-122.174;2023-03-23T15:02:44;2.10;;;1.10;;
16304;SDS011;8261;47.678;-122.174;2023-03-23T15:05:18;3.33;;;0.90;;